Αρχική σελίδα
METAR-TAF:

METAR-TAF

Αεροδρόμια :

Βερολίνο, Γερμανία

γεωγραφικό πλάτος: 52-34N, γεωγραφικό μήκος: 013-19E, υψόμετρο: 37 μ

Παρών καιρός

Η αναφορά έγινε 20 λεπτά πριν, στις 17:20 UTC
Άνεμος 12 kt από Α/NA
Θερμοκρασία 7°C
Υγρασία 66%
Πίεση 1035 hPa
Ορατότητα 10 χλμ και άνω
Αρκετά νέφη σε ύψος 2500 πόδια

METAR: EDDT 161720Z 11012KT 9999 BKN025 07/01 Q1035 NOSIG

Χρόνος: 18:40 (17:40 UTC)

Πρόγνωση Καιρού

Η αναφορά έγινε 40 λεπτά πριν, στις 17:00 UTC
Η πρόγνωση ισχύει από τις 16 στις 18 UTC έως τις 17 στις 18 UTC
Άνεμος 7 kt από Α
Ορατότητα 10 χλμ και άνω
Αρκετά νέφη σε ύψος 2500 πόδια

TAF: EDDT 161700Z 1618/1718 09007KT 9999 BKN025

Μετεωρολογικές αναφορές και προγνώσεις για περισσότερα από 4000 αεροδρόμια (δελτία METAR και TAF).

Οι διαθέσιμοι σταθμοί απεικονίζονται στο χάρτη με κίτρινες και κόκκινες κουκκίδες.

Μετακινήστε το ποντίκι πάνω από τις κουκκίδες για να δείτε το όνομα του σταθμού.

Στη συνέχεια, κάντε κλικ για να δείτε τις μετεωρολογικές αναφορές και τις προγνώσεις καιρού.

Για να αλλάξετε το χάρτη: κάντε κλικ στα πράσινα κουμπιά με τον μαύρο σταυρό για να ζουμάρετε, στο πράσινο κουμπί με την παύλα για να αφαιρέσετε το ζουμ ή στα πράσινα βέλη για να αντιπαραβάλλετε χάρτες.


METAR-TAF: